Time;durP1;ratioP1;P1;durP2;ratioP2;P2;SDS_P1;SDS_P2;PMS_P1;PMS_P2;Temp;Humidity;BMP_temperature;BMP_pressure;BME280_temperature;BME280_humidity;BME280_pressure;Samples;Min_cycle;Max_cycle;Signal;HPM_P1;HPM_P2
2022/12/19 06:03:30;;;;;;;;;;;;;;;3.28;71.14;99140.56;5927200;23;20050;31
2022/12/19 06:05:55;;;;;;;;;;;;;;;3.31;71.57;99146.53;4838122;29;19928;-66
2022/12/19 06:08:20;;;;;;;;;;;;;;;3.35;71.45;99149.91;4842497;29;19916;-66
2022/12/19 06:10:46;;;;;;;;;;;;;;;3.17;63.76;99152.94;4837644;29;20384;-67
2022/12/19 06:13:11;;;;;;;;;;;;;;;2.58;61.75;99154.25;4840722;29;20057;-66
2022/12/19 06:15:36;;;;;;;;;;;;;;;2.10;62.53;99153.50;4843010;29;20029;-68
2022/12/19 06:18:01;;;;;;;;;;;;;;;1.71;62.84;99152.47;4837393;29;19959;-67
2022/12/19 06:20:26;;;;;;;;;;;;;;;1.39;64.01;99148.72;4831099;29;19917;-67
2022/12/19 06:22:52;;;;;;;;;;;;;;;1.11;64.81;99156.91;4838848;29;19973;-66
2022/12/19 06:25:17;;;;;;;;;;;;;;;0.91;65.68;99153.78;4836477;29;19912;-66
2022/12/19 06:27:42;;;;;;;;;;;;;;;0.68;66.55;99160.09;4837740;29;20396;-67
2022/12/19 06:30:08;;;;;;;;;;;;;;;0.54;67.66;99163.75;4838961;29;20413;-66
2022/12/19 06:32:33;;;;;;;;;;;;;;;0.40;67.89;99157.03;4840870;29;20312;-66
2022/12/19 06:34:58;;;;;;;;;;;;;;;0.26;68.08;99160.66;4841602;29;19935;-66
2022/12/19 06:37:23;;;;;;;;;;;;;;;0.20;69.24;99162.41;4833799;29;19921;-66
2022/12/19 06:39:49;;;;;;;;;;;;;;;0.13;69.73;99158.19;4835025;29;19924;-66
2022/12/19 06:42:23;;;;;;;;;;;;;;;0.09;69.63;99153.94;4841935;29;19959;-66
2022/12/19 06:44:49;;;;;;;;;;;;;;;0.02;69.54;99149.75;4843642;29;19912;-67
2022/12/19 06:47:14;;;;;;;;;;;;;;;-0.01;69.70;99148.03;4835063;29;19917;-66
2022/12/19 06:49:40;;;;;;;;;;;;;;;-0.04;70.99;99149.78;4832720;29;19916;-67
2022/12/19 06:52:05;;;;;;;;;;;;;;;-0.08;72.18;99148.97;4828956;29;20709;-66
2022/12/19 06:54:30;;;;;;;;;;;;;;;-0.08;72.18;99145.56;4847685;29;19958;-67
2022/12/19 06:56:55;;;;;;;;;;;;;;;-0.10;72.41;99144.72;4841679;29;19974;-66
2022/12/19 06:59:21;;;;;;;;;;;;;;;-0.13;72.29;99139.59;4840812;29;19944;-66
2022/12/19 07:01:52;;;;;;;;;;;;;;;-0.13;72.55;99142.19;4834435;29;19959;-66
2022/12/19 07:04:20;;;;;;;;;;;;;;;-0.14;73.28;99141.28;4839737;29;19941;-66
2022/12/19 07:06:45;;;;;;;;;;;;;;;-0.15;74.05;99141.31;4840363;29;19996;-66
2022/12/19 07:09:10;;;;;;;;;;;;;;;-0.17;73.70;99135.31;4844354;29;20014;-66
2022/12/19 07:11:35;;;;;;;;;;;;;;;-0.18;74.28;99137.06;4839827;29;19972;-66
2022/12/19 07:14:00;;;;;;;;;;;;;;;-0.19;73.85;99139.66;4834527;29;19956;-66
2022/12/19 07:16:26;;;;;;;;;;;;;;;-0.21;74.13;99133.66;4836763;29;19924;-66
2022/12/19 07:18:51;;;;;;;;;;;;;;;-0.23;74.32;99143.13;4846763;29;19948;-69
2022/12/19 07:21:16;;;;;;;;;;;;;;;-0.21;73.88;99142.22;4834739;29;19933;-69
2022/12/19 07:23:41;;;;;;;;;;;;;;;0.01;82.81;99153.19;4833766;29;20300;-69
2022/12/19 07:26:07;;;;;;;;;;;;;;;-0.06;76.63;99146.41;4828240;29;20291;-68
2022/12/19 07:28:32;;;;;;;;;;;;;;;-0.07;75.37;99134.34;4824448;29;20297;-67
2022/12/19 07:30:57;;;;;;;;;;;;;;;-0.11;73.43;99138.69;4831024;29;19923;-66
2022/12/19 07:33:23;;;;;;;;;;;;;;;-0.13;73.43;99134.44;4835448;29;19912;-67
2022/12/19 07:35:48;;;;;;;;;;;;;;;-0.11;74.15;99132.69;4835644;29;19975;-67
2022/12/19 07:38:13;;;;;;;;;;;;;;;-0.12;73.03;99128.41;4840648;29;19964;-67
2022/12/19 07:40:38;;;;;;;;;;;;;;;-0.13;73.03;99119.81;4841195;29;19960;-69
2022/12/19 07:43:04;;;;;;;;;;;;;;;-0.13;73.15;99124.13;4835273;29;19990;-67
2022/12/19 07:45:29;;;;;;;;;;;;;;;-0.16;73.19;99114.69;4841081;29;19956;-67
2022/12/19 07:47:55;;;;;;;;;;;;;;;-0.15;74.24;99124.13;4841613;29;19912;-68
2022/12/19 07:50:20;;;;;;;;;;;;;;;-0.16;73.19;99124.16;4840532;29;19912;-66
2022/12/19 07:52:45;;;;;;;;;;;;;;;-0.20;73.11;99127.66;4840905;29;19917;-67
2022/12/19 07:55:10;;;;;;;;;;;;;;;-0.24;72.90;99126.81;4850427;29;20293;-67
2022/12/19 07:57:36;;;;;;;;;;;;;;;-0.28;73.72;99125.97;4846092;29;19958;-68
2022/12/19 08:00:01;;;;;;;;;;;;;;;-0.28;73.70;99115.66;4840558;29;19923;-69
2022/12/19 08:02:26;;;;;;;;;;;;;;;-0.20;73.62;99118.19;4854223;29;19912;-67
2022/12/19 08:04:52;;;;;;;;;;;;;;;-0.21;74.03;99115.59;4838190;29;19955;-66
2022/12/19 08:07:17;;;;;;;;;;;;;;;-0.20;73.80;99115.59;4837756;29;19962;-65
2022/12/19 08:09:42;;;;;;;;;;;;;;;-0.19;74.30;99119.03;4840493;29;19927;-66
2022/12/19 08:12:07;;;;;;;;;;;;;;;-0.19;73.88;99119.03;4833735;29;19924;-66
2022/12/19 08:14:32;;;;;;;;;;;;;;;-0.16;74.28;99119.00;4838541;29;19916;-67
2022/12/19 08:16:58;;;;;;;;;;;;;;;-0.15;73.40;99115.53;4824758;29;19936;-67
2022/12/19 08:19:23;;;;;;;;;;;;;;;-0.14;74.18;99124.97;4835296;29;19923;-67
2022/12/19 08:21:48;;;;;;;;;;;;;;;-0.18;73.24;99131.88;4841198;29;19991;-67
2022/12/19 08:24:13;;;;;;;;;;;;;;;-0.15;74.21;99129.28;4840130;29;20023;-66
2022/12/19 08:26:39;;;;;;;;;;;;;;;-0.10;73.61;99134.41;4825363;29;20009;-66
2022/12/19 08:29:04;;;;;;;;;;;;;;;-0.10;73.98;99145.56;4833300;29;20007;-66
2022/12/19 08:31:30;;;;;;;;;;;;;;;-0.10;74.20;99132.69;4830732;29;19927;-66
2022/12/19 08:33:55;;;;;;;;;;;;;;;-0.07;74.47;99134.34;4839535;29;19961;-67
2022/12/19 08:36:21;;;;;;;;;;;;;;;-0.05;74.28;99132.63;4840761;29;19998;-66
2022/12/19 08:38:46;;;;;;;;;;;;;;;-0.02;74.95;99122.28;4831657;29;19938;-66
2022/12/19 08:41:12;;;;;;;;;;;;;;;-0.01;73.98;99129.13;4828204;29;19917;-67
2022/12/19 08:43:37;;;;;;;;;;;;;;;-0.02;73.60;99133.44;4854823;29;19916;-67
2022/12/19 08:46:02;;;;;;;;;;;;;;;-0.02;73.86;99135.16;4846526;29;19920;-67
2022/12/19 08:48:28;;;;;;;;;;;;;;;-0.01;73.98;99124.81;4838358;29;19923;-66
2022/12/19 08:50:56;;;;;;;;;;;;;;;0.03;74.92;99127.38;4833346;29;19924;-68
2022/12/19 08:53:22;;;;;;;;;;;;;;;0.06;74.65;99125.59;4834310;29;19913;-68
2022/12/19 08:55:50;;;;;;;;;;;;;;;0.10;75.11;99114.38;4824288;29;19927;-68
2022/12/19 08:58:15;;;;;;;;;;;;;;;0.13;74.36;99111.75;4835478;29;19996;-66
2022/12/19 09:00:40;;;;;;;;;;;;;;;0.16;74.54;99105.72;4853671;29;19935;-68
2022/12/19 09:03:05;;;;;;;;;;;;;;;0.18;74.52;99125.47;4840034;29;19913;-66
2022/12/19 09:05:31;;;;;;;;;;;;;;;0.22;74.22;99121.13;4827255;29;19916;-66
2022/12/19 09:07:56;;;;;;;;;;;;;;;0.22;74.29;99118.56;4835698;29;19923;-66
2022/12/19 09:10:21;;;;;;;;;;;;;;;0.24;74.80;99103.88;4843844;29;19928;-66
2022/12/19 09:12:47;;;;;;;;;;;;;;;0.28;73.84;99115.91;4857357;29;19923;-69
2022/12/19 09:15:12;;;;;;;;;;;;;;;0.31;74.60;99125.31;4844407;29;19920;-68
2022/12/19 09:17:37;;;;;;;;;;;;;;;0.36;73.70;99131.28;4841358;29;19917;-67
2022/12/19 09:20:03;;;;;;;;;;;;;;;0.40;74.38;99125.19;4826086;29;19933;-69
2022/12/19 09:22:28;;;;;;;;;;;;;;;0.42;74.16;99128.63;4839936;29;19961;-67
2022/12/19 09:24:53;;;;;;;;;;;;;;;0.40;73.65;99131.22;4842418;29;19958;-67
2022/12/19 09:27:19;;;;;;;;;;;;;;;0.42;74.21;99131.22;4848097;29;19976;-66
2022/12/19 09:29:44;;;;;;;;;;;;;;;0.44;74.69;99137.19;4836828;29;20512;-69
2022/12/19 09:32:09;;;;;;;;;;;;;;;0.44;74.61;99122.56;4826527;29;20293;-69
2022/12/19 09:34:35;;;;;;;;;;;;;;;0.48;74.99;99123.38;4838977;29;19984;-69
2022/12/19 09:37:00;;;;;;;;;;;;;;;0.50;74.73;99121.63;4834471;29;20015;-69
2022/12/19 09:39:25;;;;;;;;;;;;;;;0.52;74.96;99125.06;4836252;29;20313;-69
2022/12/19 09:41:55;;;;;;;;;;;;;;;0.54;74.48;99128.44;4840934;29;19924;-69
2022/12/19 09:44:33;;;;;;;;;;;;;;;0.55;74.48;99130.19;4833654;29;19927;-69
2022/12/19 09:47:09;;;;;;;;;;;;;;;0.52;74.36;99124.19;4838081;29;19923;-69
2022/12/19 09:49:38;;;;;;;;;;;;;;;0.58;74.55;99122.38;4850857;29;20020;-69
2022/12/19 09:52:05;;;;;;;;;;;;;;;0.62;74.36;99123.19;4839335;29;19917;-69
2022/12/19 09:54:32;;;;;;;;;;;;;;;0.66;74.53;99106.78;4835412;29;19941;-68
2022/12/19 09:56:59;;;;;;;;;;;;;;;0.68;74.42;99117.94;4839740;29;19976;-66
2022/12/19 09:59:28;;;;;;;;;;;;;;;0.73;74.49;99110.16;4840562;29;20296;-66
2022/12/19 10:01:53;;;;;;;;;;;;;;;0.77;74.82;99111.78;4836549;29;19915;-67
2022/12/19 10:04:18;;;;;;;;;;;;;;;0.79;74.39;99104.88;4842327;29;19917;-67
2022/12/19 10:06:44;;;;;;;;;;;;;;;0.83;74.54;99115.16;4842173;29;19913;-66
2022/12/19 10:09:12;;;;;;;;;;;;;;;0.89;74.41;99119.34;4841407;29;19964;-66
2022/12/19 10:11:42;;;;;;;;;;;;;;;0.92;74.16;99104.66;4838618;29;20007;-66
2022/12/19 10:14:26;;;;;;;;;;;;;;;0.97;74.00;99103.75;4841319;29;20332;-66
2022/12/19 10:17:06;;;;;;;;;;;;;;;0.99;73.83;99100.25;4841421;29;20372;-66
2022/12/19 10:19:40;;;;;;;;;;;;;;;1.01;73.88;99103.66;4838158;29;19927;-67
2022/12/19 10:22:23;;;;;;;;;;;;;;;1.06;73.49;99103.59;4834429;29;19913;-67
2022/12/19 10:25:04;;;;;;;;;;;;;;;1.08;73.31;99107.00;4839045;29;19945;-67
2022/12/19 10:27:38;;;;;;;;;;;;;;;1.10;73.04;99110.41;4849051;29;19916;-66
2022/12/19 10:30:09;;;;;;;;;;;;;;;1.12;73.29;99101.75;4840898;29;19916;-66
2022/12/19 10:32:53;;;;;;;;;;;;;;;1.17;73.25;99096.50;4840704;29;19916;-66
2022/12/19 10:35:18;;;;;;;;;;;;;;;1.21;72.82;99099.94;4826621;29;20188;-66
2022/12/19 10:37:51;;;;;;;;;;;;;;;1.17;73.48;99105.16;4833757;29;19930;-66
2022/12/19 10:40:20;;;;;;;;;;;;;;;1.19;73.09;99103.38;4833833;29;19946;-67
2022/12/19 10:42:48;;;;;;;;;;;;;;;1.22;73.17;99099.88;4828541;29;19921;-67
2022/12/19 10:45:15;;;;;;;;;;;;;;;1.25;73.21;99081.75;4822056;29;20011;-67
2022/12/19 10:47:41;;;;;;;;;;;;;;;1.26;72.93;99088.63;4842816;29;19920;-67
2022/12/19 10:50:10;;;;;;;;;;;;;;;1.27;72.89;99097.22;4830779;29;19961;-67
2022/12/19 10:52:51;;;;;;;;;;;;;;;1.29;72.83;99103.22;4835426;29;20006;-67
2022/12/19 10:55:20;;;;;;;;;;;;;;;1.28;72.90;99101.53;4838019;29;19920;-67
2022/12/19 10:57:45;;;;;;;;;;;;;;;1.29;73.12;99100.63;4836430;29;20453;-67
2022/12/19 11:00:17;;;;;;;;;;;;;;;1.30;73.07;99089.41;4841318;29;19960;-67
2022/12/19 11:02:50;;;;;;;;;;;;;;;1.33;73.33;99076.44;4840276;29;20262;-67
2022/12/19 11:05:28;;;;;;;;;;;;;;;1.34;73.40;99060.91;4835044;29;20048;-67
2022/12/19 11:08:08;;;;;;;;;;;;;;;1.36;72.94;99053.97;4839487;29;20010;-67
2022/12/19 11:10:43;;;;;;;;;;;;;;;1.37;73.15;99047.91;4841247;29;19976;-67
2022/12/19 11:13:34;;;;;;;;;;;;;;;1.42;72.83;99047.84;4836963;29;19917;-67
2022/12/19 11:16:00;;;;;;;;;;;;;;;1.41;73.07;99028.03;4819040;29;19917;-67
2022/12/19 11:18:34;;;;;;;;;;;;;;;1.42;72.99;99029.75;4819417;29;19931;-66
2022/12/19 11:21:04;;;;;;;;;;;;;;;1.45;73.14;99052.97;4815808;29;20000;-66
2022/12/19 11:23:29;;;;;;;;;;;;;;;1.47;73.08;99035.69;4802126;29;19924;-67
2022/12/19 11:26:04;;;;;;;;;;;;;;;1.50;72.80;99040.78;4805407;29;19961;-67
2022/12/19 11:28:35;;;;;;;;;;;;;;;1.54;73.02;99042.44;4804241;29;19917;-66
2022/12/19 11:31:21;;;;;;;;;;;;;;;1.56;72.98;99025.19;4803512;29;20015;-67
2022/12/19 11:33:46;;;;;;;;;;;;;;;1.62;72.98;99037.16;4810276;29;19921;-67
2022/12/19 11:36:31;;;;;;;;;;;;;;;1.65;73.06;99037.06;4811286;29;20465;-67
2022/12/19 11:38:57;;;;;;;;;;;;;;;1.67;73.10;99028.41;4817448;29;20433;-67
2022/12/19 11:41:28;;;;;;;;;;;;;;;1.72;73.04;99024.84;4811602;29;20006;-67
2022/12/19 11:44:02;;;;;;;;;;;;;;;1.76;72.72;99018.78;4802282;29;19923;-67
2022/12/19 11:46:42;;;;;;;;;;;;;;;1.81;72.61;99016.94;4802911;29;20289;-67
2022/12/19 11:49:13;;;;;;;;;;;;;;;1.86;72.88;99002.19;4820292;29;20405;-68
2022/12/19 11:51:39;;;;;;;;;;;;;;;1.88;72.45;98995.22;4817135;29;20460;-67
2022/12/19 11:54:07;;;;;;;;;;;;;;;1.91;72.65;99000.34;4839098;29;19999;-67
2022/12/19 11:56:32;;;;;;;;;;;;;;;1.95;72.47;98991.63;4838859;29;19955;-67
2022/12/19 11:59:01;;;;;;;;;;;;;;;1.99;72.50;98988.06;4837648;29;20397;-66
2022/12/19 12:01:29;;;;;;;;;;;;;;;2.01;72.26;98975.13;4833657;29;20366;-67
2022/12/19 12:04:03;;;;;;;;;;;;;;;2.03;72.38;98976.81;4840681;29;19916;-67
2022/12/19 12:06:40;;;;;;;;;;;;;;;2.04;72.77;98996.59;4841385;29;20361;-67
2022/12/19 12:09:14;;;;;;;;;;;;;;;2.06;72.36;98984.47;4837718;29;20440;-67
2022/12/19 12:11:39;;;;;;;;;;;;;;;2.08;72.53;98989.63;4829554;29;19916;-67
2022/12/19 12:14:14;;;;;;;;;;;;;;;2.08;72.78;98992.22;4848008;29;19917;-66
2022/12/19 12:16:40;;;;;;;;;;;;;;;2.08;72.70;98981.88;4848937;29;20296;-67
2022/12/19 12:19:25;;;;;;;;;;;;;;;2.09;72.69;98962.84;4843224;29;19923;-67
2022/12/19 12:22:00;;;;;;;;;;;;;;;2.09;72.87;98955.09;4823515;29;19917;-67
2022/12/19 12:24:35;;;;;;;;;;;;;;;2.10;72.83;98955.06;4833395;29;19959;-67
2022/12/19 12:27:16;;;;;;;;;;;;;;;2.09;72.40;98952.50;4841315;29;19916;-67
2022/12/19 12:29:46;;;;;;;;;;;;;;;2.10;72.72;98949.91;4851691;29;19916;-67
2022/12/19 12:32:27;;;;;;;;;;;;;;;2.10;72.88;98943.88;4832048;29;19912;-67
2022/12/19 12:34:58;;;;;;;;;;;;;;;2.09;72.67;98935.22;4833494;29;19924;-66
2022/12/19 12:37:26;;;;;;;;;;;;;;;2.08;72.11;98935.28;4852045;29;19920;-68
2022/12/19 12:39:56;;;;;;;;;;;;;;;2.07;72.40;98939.63;4839928;29;19920;-69
2022/12/19 12:42:40;;;;;;;;;;;;;;;2.08;72.61;98938.72;4849515;29;19913;-69
2022/12/19 12:45:19;;;;;;;;;;;;;;;2.09;72.61;98942.16;4838078;29;19920;-69
2022/12/19 12:47:45;;;;;;;;;;;;;;;2.11;72.64;98954.19;4843153;29;20333;-67
2022/12/19 12:50:13;;;;;;;;;;;;;;;2.11;72.34;98961.94;4852424;29;19932;-66
2022/12/19 12:52:39;;;;;;;;;;;;;;;2.12;72.41;98955.03;4846618;29;19965;-67
2022/12/19 12:55:05;;;;;;;;;;;;;;;2.11;72.59;98946.41;4827033;29;19923;-65
2022/12/19 12:57:34;;;;;;;;;;;;;;;2.12;72.38;98948.09;4836050;29;19920;-64
2022/12/19 13:00:15;;;;;;;;;;;;;;;2.13;72.57;98938.59;4836849;29;19924;-65
2022/12/19 13:02:41;;;;;;;;;;;;;;;2.14;72.72;98930.81;4839169;29;19955;-65
2022/12/19 13:05:21;;;;;;;;;;;;;;;2.14;72.95;98923.06;4846337;29;19944;-66
2022/12/19 13:07:49;;;;;;;;;;;;;;;2.16;73.07;98911.81;4832115;29;19920;-68
2022/12/19 13:10:16;;;;;;;;;;;;;;;2.17;73.25;98904.03;4832544;29;19913;-66
2022/12/19 13:13:04;;;;;;;;;;;;;;;2.18;73.51;98886.75;4836552;29;19928;-66
2022/12/19 13:15:31;;;;;;;;;;;;;;;2.20;73.46;98900.50;4839079;29;19921;-65
2022/12/19 13:18:01;;;;;;;;;;;;;;;2.23;73.75;98897.84;4838544;29;19920;-65
2022/12/19 13:20:26;;;;;;;;;;;;;;;2.26;73.11;98897.75;4836331;29;20385;-66
2022/12/19 13:22:57;;;;;;;;;;;;;;;2.29;73.30;98895.09;4837932;29;19916;-65
2022/12/19 13:25:25;;;;;;;;;;;;;;;2.32;73.43;98905.38;4839268;29;19944;-64
2022/12/19 13:27:54;;;;;;;;;;;;;;;2.35;73.05;98903.56;4838405;29;19920;-65
2022/12/19 13:30:20;;;;;;;;;;;;;;;2.38;72.99;98906.09;4831351;29;20015;-65
2022/12/19 13:32:45;;;;;;;;;;;;;;;2.41;72.95;98912.94;4855036;29;20003;-65
2022/12/19 13:35:11;;;;;;;;;;;;;;;2.42;72.42;98919.81;4843976;29;20384;-65
2022/12/19 13:37:36;;;;;;;;;;;;;;;2.43;72.33;98925.84;4832686;29;20023;-64
2022/12/19 13:40:05;;;;;;;;;;;;;;;2.42;72.81;98919.81;4829153;29;19942;-63
2022/12/19 13:45:16;;;;;;;;;;;;;;;2.45;72.88;98922.34;4838378;29;20016;-65
2022/12/19 13:47:41;;;;;;;;;;;;;;;2.46;73.00;98926.63;4835022;29;20353;-65
2022/12/19 13:50:14;;;;;;;;;;;;;;;2.47;72.76;98919.69;4841769;29;19916;-65
2022/12/19 13:52:39;;;;;;;;;;;;;;;2.46;72.75;98921.44;4855063;29;19916;-65
2022/12/19 13:55:09;;;;;;;;;;;;;;;2.47;73.06;98911.91;4840024;29;20281;-67
2022/12/19 13:57:35;;;;;;;;;;;;;;;2.46;73.19;98910.22;4839159;29;20262;-66
2022/12/19 14:00:01;;;;;;;;;;;;;;;2.45;73.26;98916.31;4830738;29;19927;-65
2022/12/19 14:02:26;;;;;;;;;;;;;;;2.43;73.29;98923.25;4849854;29;19912;-65
2022/12/19 14:04:51;;;;;;;;;;;;;;;2.44;73.31;98906.81;4840832;29;20015;-66
2022/12/19 14:07:27;;;;;;;;;;;;;;;2.42;73.19;98906.03;4842219;29;19928;-64
2022/12/19 14:09:52;;;;;;;;;;;;;;;2.39;73.48;98909.53;4840308;29;19925;-65
2022/12/19 14:15:26;;;;;;;;;;;;;;;2.35;73.71;98906.16;4807985;29;20006;-65
2022/12/19 14:17:52;;;;;;;;;;;;;;;2.34;73.81;98901.88;4850399;29;19973;-67
2022/12/19 14:20:19;;;;;;;;;;;;;;;2.32;74.22;98897.63;4839956;29;19917;-65
2022/12/19 14:22:44;;;;;;;;;;;;;;;2.31;74.18;98890.75;4825233;29;19919;-67
2022/12/19 14:25:10;;;;;;;;;;;;;;;2.28;74.24;98886.50;4837432;29;19916;-66
2022/12/19 14:27:39;;;;;;;;;;;;;;;2.26;73.96;98883.06;4834539;29;19917;-66
2022/12/19 14:30:05;;;;;;;;;;;;;;;2.24;74.85;98889.19;4839927;29;20024;-65
2022/12/19 14:32:31;;;;;;;;;;;;;;;2.24;74.54;98890.03;4826398;29;20452;-65
2022/12/19 14:34:56;;;;;;;;;;;;;;;2.22;74.70;98888.38;4836715;29;19916;-64
2022/12/19 14:37:31;;;;;;;;;;;;;;;2.21;74.70;98899.63;4832707;29;19925;-64
2022/12/19 14:39:57;;;;;;;;;;;;;;;2.19;74.96;98901.38;4850038;29;20304;-64
2022/12/19 14:45:25;;;;;;;;;;;;;;;2.16;74.78;98901.47;4852793;29;19966;-65
2022/12/19 14:47:50;;;;;;;;;;;;;;;2.14;74.71;98891.16;4838940;29;19947;-65
2022/12/19 14:50:32;;;;;;;;;;;;;;;2.16;75.23;98885.94;4833751;29;19963;-66
2022/12/19 14:53:06;;;;;;;;;;;;;;;2.17;75.12;98893.66;4838876;29;22512;-64
2022/12/19 14:55:32;;;;;;;;;;;;;;;2.17;75.01;98895.38;4836812;29;19920;-62
2022/12/19 14:57:58;;;;;;;;;;;;;;;2.14;75.07;98889.41;4832305;29;19928;-62
2022/12/19 15:00:30;;;;;;;;;;;;;;;2.12;75.06;98896.34;4843513;29;19962;-64
2022/12/19 15:02:55;;;;;;;;;;;;;;;2.12;75.18;98906.69;4835664;29;19973;-63
2022/12/19 15:05:21;;;;;;;;;;;;;;;2.10;74.80;98900.72;4841678;29;19920;-63
2022/12/19 15:07:46;;;;;;;;;;;;;;;2.09;74.90;98899.00;4834497;29;20317;-63
2022/12/19 15:10:13;;;;;;;;;;;;;;;2.08;75.15;98892.13;4834732;29;20381;-64
2022/12/19 15:15:44;;;;;;;;;;;;;;;2.03;75.29;98896.59;4842589;29;19978;-63
2022/12/19 15:18:21;;;;;;;;;;;;;;;2.02;75.38;98894.84;4843264;29;20558;-63
2022/12/19 15:20:47;;;;;;;;;;;;;;;2.02;75.53;98902.63;4839886;29;19922;-63
2022/12/19 15:23:12;;;;;;;;;;;;;;;2.02;75.39;98901.78;4833150;29;19916;-63
2022/12/19 15:25:37;;;;;;;;;;;;;;;2.00;75.23;98901.81;4838904;29;19916;-63
2022/12/19 15:28:16;;;;;;;;;;;;;;;2.00;75.69;98901.81;4830570;29;19961;-63
2022/12/19 15:30:42;;;;;;;;;;;;;;;1.98;75.45;98893.22;4837011;29;19928;-64
2022/12/19 15:33:13;;;;;;;;;;;;;;;1.98;75.86;98898.41;4839914;29;19920;-63
2022/12/19 15:35:38;;;;;;;;;;;;;;;1.97;75.69;98894.13;4839021;29;19924;-65
2022/12/19 15:38:03;;;;;;;;;;;;;;;1.98;75.80;98893.22;4830124;29;19936;-64
2022/12/19 15:40:29;;;;;;;;;;;;;;;1.98;75.63;98889.81;4828824;29;20015;-64
2022/12/19 15:42:54;;;;;;;;;;;;;;;1.97;75.82;98894.13;4840786;29;20349;-63
2022/12/19 15:45:19;;;;;;;;;;;;;;;1.97;75.78;98893.28;4853821;29;20401;-66
2022/12/19 15:47:44;;;;;;;;;;;;;;;1.96;75.76;98888.97;4838665;29;20357;-63
2022/12/19 15:50:23;;;;;;;;;;;;;;;1.95;75.88;98893.31;4827469;29;19916;-64
2022/12/19 15:52:48;;;;;;;;;;;;;;;1.93;76.04;98883.88;4836888;29;20003;-64
2022/12/19 15:55:14;;;;;;;;;;;;;;;1.90;76.05;98885.66;4849078;29;19995;-64
2022/12/19 15:57:40;;;;;;;;;;;;;;;1.89;76.10;98883.97;4838416;29;19921;-66
2022/12/19 16:00:07;;;;;;;;;;;;;;;1.88;76.13;98877.06;4827626;29;19999;-65
2022/12/19 16:02:32;;;;;;;;;;;;;;;1.89;76.05;98872.72;4835391;29;20029;-64
2022/12/19 16:04:57;;;;;;;;;;;;;;;1.88;76.14;98876.22;4836308;29;19950;-63
2022/12/19 16:07:24;;;;;;;;;;;;;;;1.88;76.31;98876.22;4832128;29;19924;-63
2022/12/19 16:09:49;;;;;;;;;;;;;;;1.86;76.24;98871.09;4837630;29;19953;-63
2022/12/19 16:12:15;;;;;;;;;;;;;;;1.88;76.57;98873.63;4835303;29;20308;-64
2022/12/19 16:14:41;;;;;;;;;;;;;;;1.88;76.25;98868.47;4845227;29;19917;-64
2022/12/19 16:17:08;;;;;;;;;;;;;;;1.86;76.36;98867.66;4841331;29;19938;-62
2022/12/19 16:19:33;;;;;;;;;;;;;;;1.85;76.15;98863.34;4838729;29;20007;-64
2022/12/19 16:21:59;;;;;;;;;;;;;;;1.84;76.19;98870.25;4831035;29;20519;-64
2022/12/19 16:24:24;;;;;;;;;;;;;;;1.83;76.40;98863.41;4833427;29;19917;-64
2022/12/19 16:26:51;;;;;;;;;;;;;;;1.81;76.51;98861.72;4835803;29;19920;-64
2022/12/19 16:29:17;;;;;;;;;;;;;;;1.81;76.69;98864.31;4840321;29;19917;-63
2022/12/19 16:31:43;;;;;;;;;;;;;;;1.82;76.60;98855.66;4838561;29;19947;-63
2022/12/19 16:34:18;;;;;;;;;;;;;;;1.81;76.65;98851.38;4836652;29;20016;-63
2022/12/19 16:36:43;;;;;;;;;;;;;;;1.79;76.72;98841.09;4846933;29;19919;-64
2022/12/19 16:39:09;;;;;;;;;;;;;;;1.80;76.67;98841.94;4840437;29;19921;-65
2022/12/19 16:41:34;;;;;;;;;;;;;;;1.81;76.91;98841.03;4839774;29;20381;-64
2022/12/19 16:44:00;;;;;;;;;;;;;;;1.80;76.58;98844.50;4834655;29;20429;-64
2022/12/19 16:46:29;;;;;;;;;;;;;;;1.79;76.97;98845.38;4839952;29;19916;-63
2022/12/19 16:48:54;;;;;;;;;;;;;;;1.77;76.69;98847.16;4839916;29;19985;-64
2022/12/19 16:51:23;;;;;;;;;;;;;;;1.78;76.77;98839.34;4839448;29;19951;-64
2022/12/19 16:53:49;;;;;;;;;;;;;;;1.77;76.80;98847.16;4837771;29;20039;-63
2022/12/19 16:56:21;;;;;;;;;;;;;;;1.77;76.74;98842.84;4840626;29;20381;-62
2022/12/19 16:58:46;;;;;;;;;;;;;;;1.75;76.91;98838.59;4839146;29;19923;-63
2022/12/19 17:01:11;;;;;;;;;;;;;;;1.75;76.82;98836.00;4828342;29;20616;-66
2022/12/19 17:03:39;;;;;;;;;;;;;;;1.73;77.01;98827.44;4831050;29;20306;-62
2022/12/19 17:06:04;;;;;;;;;;;;;;;1.72;77.17;98826.59;4831336;29;19916;-64
2022/12/19 17:08:31;;;;;;;;;;;;;;;1.71;77.06;98817.13;4840044;29;20624;-64
2022/12/19 17:10:56;;;;;;;;;;;;;;;1.71;77.27;98829.19;4822834;29;20003;-63
2022/12/19 17:13:21;;;;;;;;;;;;;;;1.69;77.10;98829.25;4827371;29;20003;-63
2022/12/19 17:15:46;;;;;;;;;;;;;;;1.71;77.04;98835.22;4841360;29;20014;-63
2022/12/19 17:18:17;;;;;;;;;;;;;;;1.67;77.08;98826.69;4844489;29;19940;-62
2022/12/19 17:20:42;;;;;;;;;;;;;;;1.67;76.81;98829.25;4839889;29;19916;-66
2022/12/19 17:23:15;;;;;;;;;;;;;;;1.66;77.21;98832.75;4833338;29;19933;-66
2022/12/19 17:25:40;;;;;;;;;;;;;;;1.65;76.88;98833.63;4831285;29;19959;-64
2022/12/19 17:28:05;;;;;;;;;;;;;;;1.65;77.06;98823.28;4842807;29;20027;-63
2022/12/19 17:30:31;;;;;;;;;;;;;;;1.64;77.06;98821.56;4843072;29;19955;-64
2022/12/19 17:32:56;;;;;;;;;;;;;;;1.65;77.08;98823.28;4839837;29;20036;-61
2022/12/19 17:35:22;;;;;;;;;;;;;;;1.64;77.21;98831.91;4835711;29;19952;-60
2022/12/19 17:37:51;;;;;;;;;;;;;;;1.64;77.12;98826.75;4838453;29;20007;-63
2022/12/19 17:40:21;;;;;;;;;;;;;;;1.63;77.25;98819.88;4838145;29;20370;-63
2022/12/19 17:42:46;;;;;;;;;;;;;;;1.62;77.30;98825.94;4840033;29;20003;-62
2022/12/19 17:45:11;;;;;;;;;;;;;;;1.62;77.28;98828.53;4841214;29;20359;-62
2022/12/19 17:47:37;;;;;;;;;;;;;;;1.60;77.36;98830.28;4842808;29;19980;-63
2022/12/19 17:50:02;;;;;;;;;;;;;;;1.59;77.25;98832.94;4837576;29;19921;-63
2022/12/19 17:52:27;;;;;;;;;;;;;;;1.59;77.25;98840.69;4843987;29;20391;-64
2022/12/19 17:54:52;;;;;;;;;;;;;;;1.58;77.42;98834.66;4844706;29;19917;-63
2022/12/19 17:57:18;;;;;;;;;;;;;;;1.58;77.09;98821.72;4838074;29;19916;-63
2022/12/19 17:59:45;;;;;;;;;;;;;;;1.59;77.11;98822.59;4840001;29;19916;-62
2022/12/19 18:02:21;;;;;;;;;;;;;;;1.57;77.14;98814.00;4834673;29;20439;-62
2022/12/19 18:04:46;;;;;;;;;;;;;;;1.58;77.14;98813.97;4841156;29;19921;-64
2022/12/19 18:07:13;;;;;;;;;;;;;;;1.57;77.13;98825.19;4843205;29;19924;-63
2022/12/19 18:09:38;;;;;;;;;;;;;;;1.56;76.94;98823.50;4833089;29;19924;-63
2022/12/19 18:12:03;;;;;;;;;;;;;;;1.57;76.96;98824.34;4841917;29;19988;-64
2022/12/19 18:14:28;;;;;;;;;;;;;;;1.57;77.12;98832.09;4834697;29;19928;-62
2022/12/19 18:16:53;;;;;;;;;;;;;;;1.52;76.74;98832.22;4839646;29;19942;-64
2022/12/19 18:19:19;;;;;;;;;;;;;;;1.51;77.02;98840.81;4834187;29;20432;-64
2022/12/19 18:21:44;;;;;;;;;;;;;;;1.50;77.24;98849.47;4853876;29;20368;-64
2022/12/19 18:24:10;;;;;;;;;;;;;;;1.49;77.54;98845.19;4838611;29;20288;-64
2022/12/19 18:26:36;;;;;;;;;;;;;;;1.49;77.19;98841.75;4833161;29;19956;-63
2022/12/19 18:29:01;;;;;;;;;;;;;;;1.45;77.20;98843.56;4839736;29;19920;-63
2022/12/19 18:31:26;;;;;;;;;;;;;;;1.42;77.57;98843.63;4839071;29;19916;-63
2022/12/19 18:33:52;;;;;;;;;;;;;;;1.43;77.71;98847.91;4837992;29;19933;-64
2022/12/19 18:36:21;;;;;;;;;;;;;;;1.42;77.58;98846.22;4835493;29;19925;-63
2022/12/19 18:38:47;;;;;;;;;;;;;;;1.41;77.52;98845.38;4829762;29;19928;-63
2022/12/19 18:41:13;;;;;;;;;;;;;;;1.40;77.30;98842.81;4842732;29;19920;-63
2022/12/19 18:43:38;;;;;;;;;;;;;;;1.39;77.01;98849.72;4833144;29;20029;-64
2022/12/19 18:46:03;;;;;;;;;;;;;;;1.38;77.21;98844.59;4847446;29;19916;-64
2022/12/19 18:48:32;;;;;;;;;;;;;;;1.37;77.36;98864.38;4841018;29;20297;-63
2022/12/19 18:50:59;;;;;;;;;;;;;;;1.35;77.34;98848.06;4825997;29;19924;-64
2022/12/19 18:53:26;;;;;;;;;;;;;;;1.34;77.64;98850.69;4829917;29;19999;-64
2022/12/19 18:55:51;;;;;;;;;;;;;;;1.33;77.79;98859.31;4829957;29;20018;-64
2022/12/19 18:58:17;;;;;;;;;;;;;;;1.31;77.84;98863.69;4846047;29;20019;-63
2022/12/19 19:00:42;;;;;;;;;;;;;;;1.31;77.56;98866.28;4842893;29;19921;-64
2022/12/19 19:03:10;;;;;;;;;;;;;;;1.30;77.65;98862.81;4839440;29;19916;-63
2022/12/19 19:05:36;;;;;;;;;;;;;;;1.30;77.81;98867.13;4839677;29;20023;-63
2022/12/19 19:08:05;;;;;;;;;;;;;;;1.27;77.51;98872.38;4833234;29;20007;-62
2022/12/19 19:10:30;;;;;;;;;;;;;;;1.25;77.67;98879.31;4833566;29;19912;-63
2022/12/19 19:12:55;;;;;;;;;;;;;;;1.24;77.58;98867.25;4840752;29;20007;-64